sensor_id;sensor_type;location;lat;lon;timestamp;P1;durP1;ratioP1;P2;durP2;ratioP2
11123;SDS011;5616;42.692;23.312;2023-06-26T00:00:01;21.43;;;16.60;;
11123;SDS011;5616;42.692;23.312;2023-06-26T00:02:30;20.20;;;16.07;;
11123;SDS011;5616;42.692;23.312;2023-06-26T00:04:58;17.93;;;16.00;;
11123;SDS011;5616;42.692;23.312;2023-06-26T00:07:27;16.63;;;14.93;;
11123;SDS011;5616;42.692;23.312;2023-06-26T00:09:55;18.80;;;16.80;;
11123;SDS011;5616;42.692;23.312;2023-06-26T00:12:23;17.30;;;15.30;;
11123;SDS011;5616;42.692;23.312;2023-06-26T00:14:49;16.57;;;14.33;;
11123;SDS011;5616;42.692;23.312;2023-06-26T00:17:16;16.63;;;14.83;;
11123;SDS011;5616;42.692;23.312;2023-06-26T00:19:44;19.10;;;14.93;;
11123;SDS011;5616;42.692;23.312;2023-06-26T00:22:11;15.40;;;13.80;;
11123;SDS011;5616;42.692;23.312;2023-06-26T00:24:38;17.00;;;15.30;;
11123;SDS011;5616;42.692;23.312;2023-06-26T00:27:05;15.37;;;13.47;;
11123;SDS011;5616;42.692;23.312;2023-06-26T00:29:33;14.73;;;13.23;;
11123;SDS011;5616;42.692;23.312;2023-06-26T00:32:00;15.10;;;13.47;;
11123;SDS011;5616;42.692;23.312;2023-06-26T00:34:27;14.17;;;12.53;;
11123;SDS011;5616;42.692;23.312;2023-06-26T00:36:54;15.03;;;12.30;;
11123;SDS011;5616;42.692;23.312;2023-06-26T00:39:20;16.47;;;12.90;;
11123;SDS011;5616;42.692;23.312;2023-06-26T00:41:50;15.97;;;12.73;;
11123;SDS011;5616;42.692;23.312;2023-06-26T00:44:18;15.77;;;12.57;;
11123;SDS011;5616;42.692;23.312;2023-06-26T00:46:47;13.20;;;11.90;;
11123;SDS011;5616;42.692;23.312;2023-06-26T00:49:13;14.87;;;12.97;;
11123;SDS011;5616;42.692;23.312;2023-06-26T00:51:41;14.80;;;13.30;;
11123;SDS011;5616;42.692;23.312;2023-06-26T00:54:08;15.47;;;13.87;;
11123;SDS011;5616;42.692;23.312;2023-06-26T00:56:34;14.40;;;13.00;;
11123;SDS011;5616;42.692;23.312;2023-06-26T00:59:04;14.00;;;12.70;;
11123;SDS011;5616;42.692;23.312;2023-06-26T01:01:31;13.77;;;11.63;;
11123;SDS011;5616;42.692;23.312;2023-06-26T01:03:59;14.00;;;12.40;;
11123;SDS011;5616;42.692;23.312;2023-06-26T01:06:26;19.73;;;12.90;;
11123;SDS011;5616;42.692;23.312;2023-06-26T01:08:57;15.70;;;12.00;;
11123;SDS011;5616;42.692;23.312;2023-06-26T01:11:24;13.97;;;12.00;;
11123;SDS011;5616;42.692;23.312;2023-06-26T01:13:51;13.27;;;11.80;;
11123;SDS011;5616;42.692;23.312;2023-06-26T01:16:19;12.77;;;11.43;;
11123;SDS011;5616;42.692;23.312;2023-06-26T01:18:47;12.40;;;11.13;;
11123;SDS011;5616;42.692;23.312;2023-06-26T01:21:16;12.47;;;11.20;;
11123;SDS011;5616;42.692;23.312;2023-06-26T01:23:49;12.57;;;10.73;;
11123;SDS011;5616;42.692;23.312;2023-06-26T01:26:32;12.40;;;11.10;;
11123;SDS011;5616;42.692;23.312;2023-06-26T01:29:01;12.30;;;11.07;;
11123;SDS011;5616;42.692;23.312;2023-06-26T01:31:29;11.40;;;10.30;;
11123;SDS011;5616;42.692;23.312;2023-06-26T01:33:57;13.07;;;10.60;;
11123;SDS011;5616;42.692;23.312;2023-06-26T01:36:25;12.67;;;11.00;;
11123;SDS011;5616;42.692;23.312;2023-06-26T01:38:53;12.50;;;11.30;;
11123;SDS011;5616;42.692;23.312;2023-06-26T01:41:22;12.70;;;11.30;;
11123;SDS011;5616;42.692;23.312;2023-06-26T01:43:57;13.23;;;10.93;;
11123;SDS011;5616;42.692;23.312;2023-06-26T01:46:35;11.73;;;10.63;;
11123;SDS011;5616;42.692;23.312;2023-06-26T01:49:07;11.97;;;10.77;;
11123;SDS011;5616;42.692;23.312;2023-06-26T01:51:38;13.33;;;11.07;;
11123;SDS011;5616;42.692;23.312;2023-06-26T01:54:08;12.10;;;10.97;;
11123;SDS011;5616;42.692;23.312;2023-06-26T01:56:40;14.40;;;11.67;;
11123;SDS011;5616;42.692;23.312;2023-06-26T01:59:10;13.17;;;11.70;;
11123;SDS011;5616;42.692;23.312;2023-06-26T02:01:39;12.13;;;11.03;;
11123;SDS011;5616;42.692;23.312;2023-06-26T02:04:07;12.23;;;11.03;;
11123;SDS011;5616;42.692;23.312;2023-06-26T02:06:34;12.30;;;10.87;;
11123;SDS011;5616;42.692;23.312;2023-06-26T02:09:01;12.00;;;10.80;;
11123;SDS011;5616;42.692;23.312;2023-06-26T02:11:30;12.30;;;11.03;;
11123;SDS011;5616;42.692;23.312;2023-06-26T02:13:57;15.27;;;11.43;;
11123;SDS011;5616;42.692;23.312;2023-06-26T02:16:25;13.80;;;11.80;;
11123;SDS011;5616;42.692;23.312;2023-06-26T02:18:52;13.77;;;11.73;;
11123;SDS011;5616;42.692;23.312;2023-06-26T02:21:22;14.23;;;12.20;;
11123;SDS011;5616;42.692;23.312;2023-06-26T02:23:49;13.63;;;12.00;;
11123;SDS011;5616;42.692;23.312;2023-06-26T02:26:15;14.13;;;12.47;;
11123;SDS011;5616;42.692;23.312;2023-06-26T02:28:42;13.90;;;12.37;;
11123;SDS011;5616;42.692;23.312;2023-06-26T02:31:11;14.10;;;12.70;;
11123;SDS011;5616;42.692;23.312;2023-06-26T02:33:39;15.63;;;12.30;;
11123;SDS011;5616;42.692;23.312;2023-06-26T02:36:07;14.40;;;12.93;;
11123;SDS011;5616;42.692;23.312;2023-06-26T02:38:34;14.17;;;12.67;;
11123;SDS011;5616;42.692;23.312;2023-06-26T02:41:02;14.37;;;13.07;;
11123;SDS011;5616;42.692;23.312;2023-06-26T02:43:29;15.83;;;13.37;;
11123;SDS011;5616;42.692;23.312;2023-06-26T02:45:56;16.13;;;14.53;;
11123;SDS011;5616;42.692;23.312;2023-06-26T02:48:22;16.40;;;14.70;;
11123;SDS011;5616;42.692;23.312;2023-06-26T02:50:51;18.07;;;14.83;;
11123;SDS011;5616;42.692;23.312;2023-06-26T02:53:22;17.50;;;15.80;;
11123;SDS011;5616;42.692;23.312;2023-06-26T02:55:49;17.13;;;15.37;;
11123;SDS011;5616;42.692;23.312;2023-06-26T02:58:17;16.60;;;14.33;;
11123;SDS011;5616;42.692;23.312;2023-06-26T03:00:44;16.43;;;14.30;;
11123;SDS011;5616;42.692;23.312;2023-06-26T03:03:15;19.97;;;15.00;;
11123;SDS011;5616;42.692;23.312;2023-06-26T03:05:42;16.87;;;15.20;;
11123;SDS011;5616;42.692;23.312;2023-06-26T03:08:10;17.80;;;15.63;;
11123;SDS011;5616;42.692;23.312;2023-06-26T03:10:38;17.97;;;16.07;;
11123;SDS011;5616;42.692;23.312;2023-06-26T03:13:04;17.67;;;15.87;;
11123;SDS011;5616;42.692;23.312;2023-06-26T03:15:31;17.10;;;15.23;;
11123;SDS011;5616;42.692;23.312;2023-06-26T03:17:58;17.93;;;15.03;;
11123;SDS011;5616;42.692;23.312;2023-06-26T03:20:27;17.90;;;16.10;;
11123;SDS011;5616;42.692;23.312;2023-06-26T03:22:56;17.63;;;15.93;;
11123;SDS011;5616;42.692;23.312;2023-06-26T03:25:24;17.77;;;15.87;;
11123;SDS011;5616;42.692;23.312;2023-06-26T03:28:03;17.77;;;15.90;;
11123;SDS011;5616;42.692;23.312;2023-06-26T03:30:31;17.73;;;15.97;;
11123;SDS011;5616;42.692;23.312;2023-06-26T03:32:57;20.43;;;17.73;;
11123;SDS011;5616;42.692;23.312;2023-06-26T03:35:24;19.23;;;17.27;;
11123;SDS011;5616;42.692;23.312;2023-06-26T03:37:51;19.03;;;16.73;;
11123;SDS011;5616;42.692;23.312;2023-06-26T03:40:18;19.53;;;16.83;;
11123;SDS011;5616;42.692;23.312;2023-06-26T03:42:46;18.67;;;16.77;;
11123;SDS011;5616;42.692;23.312;2023-06-26T03:45:13;22.87;;;17.60;;
11123;SDS011;5616;42.692;23.312;2023-06-26T03:47:42;21.00;;;16.87;;
11123;SDS011;5616;42.692;23.312;2023-06-26T03:50:09;19.47;;;17.67;;
11123;SDS011;5616;42.692;23.312;2023-06-26T03:52:36;19.37;;;17.60;;
11123;SDS011;5616;42.692;23.312;2023-06-26T03:55:03;20.03;;;17.17;;
11123;SDS011;5616;42.692;23.312;2023-06-26T03:57:31;18.97;;;17.27;;
11123;SDS011;5616;42.692;23.312;2023-06-26T03:59:59;18.60;;;16.77;;
11123;SDS011;5616;42.692;23.312;2023-06-26T04:02:26;18.60;;;16.80;;
11123;SDS011;5616;42.692;23.312;2023-06-26T04:04:52;19.00;;;16.97;;
11123;SDS011;5616;42.692;23.312;2023-06-26T04:07:20;17.43;;;15.67;;
11123;SDS011;5616;42.692;23.312;2023-06-26T04:09:46;20.27;;;16.20;;
11123;SDS011;5616;42.692;23.312;2023-06-26T04:12:13;17.50;;;15.77;;
11123;SDS011;5616;42.692;23.312;2023-06-26T04:14:40;17.43;;;15.20;;
11123;SDS011;5616;42.692;23.312;2023-06-26T04:17:09;17.33;;;15.70;;
11123;SDS011;5616;42.692;23.312;2023-06-26T04:19:36;16.17;;;14.57;;
11123;SDS011;5616;42.692;23.312;2023-06-26T04:22:03;16.40;;;14.70;;
11123;SDS011;5616;42.692;23.312;2023-06-26T04:24:30;16.57;;;14.97;;
11123;SDS011;5616;42.692;23.312;2023-06-26T04:26:57;15.10;;;13.60;;
11123;SDS011;5616;42.692;23.312;2023-06-26T04:29:23;15.53;;;14.07;;
11123;SDS011;5616;42.692;23.312;2023-06-26T04:31:52;15.63;;;14.13;;
11123;SDS011;5616;42.692;23.312;2023-06-26T04:34:24;15.27;;;13.77;;
11123;SDS011;5616;42.692;23.312;2023-06-26T04:36:51;15.70;;;14.07;;
11123;SDS011;5616;42.692;23.312;2023-06-26T04:39:18;16.27;;;14.33;;
11123;SDS011;5616;42.692;23.312;2023-06-26T04:41:45;15.63;;;13.97;;
11123;SDS011;5616;42.692;23.312;2023-06-26T04:44:12;15.27;;;13.87;;
11123;SDS011;5616;42.692;23.312;2023-06-26T04:46:38;15.77;;;14.03;;
11123;SDS011;5616;42.692;23.312;2023-06-26T04:49:06;15.47;;;13.87;;
11123;SDS011;5616;42.692;23.312;2023-06-26T04:51:34;15.67;;;14.17;;
11123;SDS011;5616;42.692;23.312;2023-06-26T04:54:05;15.80;;;14.30;;
11123;SDS011;5616;42.692;23.312;2023-06-26T04:56:32;14.80;;;13.40;;
11123;SDS011;5616;42.692;23.312;2023-06-26T04:58:59;15.17;;;13.57;;
11123;SDS011;5616;42.692;23.312;2023-06-26T05:01:26;16.77;;;13.40;;
11123;SDS011;5616;42.692;23.312;2023-06-26T05:03:54;15.30;;;13.27;;
11123;SDS011;5616;42.692;23.312;2023-06-26T05:06:21;14.53;;;13.23;;
11123;SDS011;5616;42.692;23.312;2023-06-26T05:08:49;15.37;;;13.77;;
11123;SDS011;5616;42.692;23.312;2023-06-26T05:11:16;14.47;;;13.03;;
11123;SDS011;5616;42.692;23.312;2023-06-26T05:13:43;15.20;;;13.63;;
11123;SDS011;5616;42.692;23.312;2023-06-26T05:16:10;14.88;;;13.43;;
11123;SDS011;5616;42.692;23.312;2023-06-26T05:18:36;15.05;;;13.50;;
11123;SDS011;5616;42.692;23.312;2023-06-26T05:21:03;14.75;;;13.30;;
11123;SDS011;5616;42.692;23.312;2023-06-26T05:23:31;13.93;;;12.52;;
11123;SDS011;5616;42.692;23.312;2023-06-26T05:26:01;15.10;;;12.60;;
11123;SDS011;5616;42.692;23.312;2023-06-26T05:28:29;13.82;;;12.52;;
11123;SDS011;5616;42.692;23.312;2023-06-26T05:30:57;14.80;;;12.45;;
11123;SDS011;5616;42.692;23.312;2023-06-26T05:33:25;14.07;;;12.68;;
11123;SDS011;5616;42.692;23.312;2023-06-26T05:35:53;13.70;;;11.63;;
11123;SDS011;5616;42.692;23.312;2023-06-26T05:38:21;12.60;;;11.43;;
11123;SDS011;5616;42.692;23.312;2023-06-26T05:40:48;13.32;;;11.93;;
11123;SDS011;5616;42.692;23.312;2023-06-26T05:43:17;11.30;;;10.18;;
11123;SDS011;5616;42.692;23.312;2023-06-26T05:45:46;13.43;;;12.13;;
11123;SDS011;5616;42.692;23.312;2023-06-26T05:48:13;12.80;;;11.50;;
11123;SDS011;5616;42.692;23.312;2023-06-26T05:50:41;13.98;;;11.65;;
11123;SDS011;5616;42.692;23.312;2023-06-26T05:53:09;12.57;;;11.45;;
11123;SDS011;5616;42.692;23.312;2023-06-26T05:55:36;15.18;;;13.60;;
11123;SDS011;5616;42.692;23.312;2023-06-26T05:58:04;14.65;;;12.15;;
11123;SDS011;5616;42.692;23.312;2023-06-26T06:00:33;15.80;;;11.80;;
11123;SDS011;5616;42.692;23.312;2023-06-26T06:03:00;12.05;;;10.85;;
11123;SDS011;5616;42.692;23.312;2023-06-26T06:05:27;11.57;;;10.55;;
11123;SDS011;5616;42.692;23.312;2023-06-26T06:07:54;16.23;;;11.52;;
11123;SDS011;5616;42.692;23.312;2023-06-26T06:10:21;11.50;;;10.35;;
11123;SDS011;5616;42.692;23.312;2023-06-26T06:12:48;11.32;;;10.20;;
11123;SDS011;5616;42.692;23.312;2023-06-26T06:15:14;11.55;;;10.27;;
11123;SDS011;5616;42.692;23.312;2023-06-26T06:17:43;12.48;;;10.63;;
11123;SDS011;5616;42.692;23.312;2023-06-26T06:20:10;12.50;;;10.55;;
11123;SDS011;5616;42.692;23.312;2023-06-26T06:22:37;10.68;;;9.63;;
11123;SDS011;5616;42.692;23.312;2023-06-26T06:25:04;10.57;;;9.52;;
11123;SDS011;5616;42.692;23.312;2023-06-26T06:27:31;10.77;;;9.70;;
11123;SDS011;5616;42.692;23.312;2023-06-26T06:29:58;9.90;;;8.88;;
11123;SDS011;5616;42.692;23.312;2023-06-26T06:32:24;10.65;;;9.27;;
11123;SDS011;5616;42.692;23.312;2023-06-26T06:34:53;9.63;;;8.73;;
11123;SDS011;5616;42.692;23.312;2023-06-26T06:37:19;9.40;;;8.60;;
11123;SDS011;5616;42.692;23.312;2023-06-26T06:39:46;8.13;;;7.43;;
11123;SDS011;5616;42.692;23.312;2023-06-26T06:42:13;8.85;;;7.18;;
11123;SDS011;5616;42.692;23.312;2023-06-26T06:44:40;9.07;;;6.70;;
11123;SDS011;5616;42.692;23.312;2023-06-26T06:47:06;7.18;;;6.57;;
11123;SDS011;5616;42.692;23.312;2023-06-26T06:49:33;7.18;;;6.32;;
11123;SDS011;5616;42.692;23.312;2023-06-26T06:52:01;7.85;;;6.00;;
11123;SDS011;5616;42.692;23.312;2023-06-26T06:54:28;6.00;;;5.50;;
11123;SDS011;5616;42.692;23.312;2023-06-26T06:56:55;6.68;;;5.97;;
11123;SDS011;5616;42.692;23.312;2023-06-26T06:59:22;5.63;;;4.90;;
11123;SDS011;5616;42.692;23.312;2023-06-26T07:01:48;5.32;;;4.82;;
11123;SDS011;5616;42.692;23.312;2023-06-26T07:04:15;5.00;;;4.50;;
11123;SDS011;5616;42.692;23.312;2023-06-26T07:06:42;5.40;;;4.40;;
11123;SDS011;5616;42.692;23.312;2023-06-26T07:09:10;5.43;;;4.43;;
11123;SDS011;5616;42.692;23.312;2023-06-26T07:11:37;5.90;;;4.40;;
11123;SDS011;5616;42.692;23.312;2023-06-26T07:14:04;5.25;;;4.75;;
11123;SDS011;5616;42.692;23.312;2023-06-26T07:16:30;5.45;;;4.53;;
11123;SDS011;5616;42.692;23.312;2023-06-26T07:18:57;5.13;;;4.63;;
11123;SDS011;5616;42.692;23.312;2023-06-26T07:21:24;5.65;;;4.25;;
11123;SDS011;5616;42.692;23.312;2023-06-26T07:23:51;4.78;;;4.38;;
11123;SDS011;5616;42.692;23.312;2023-06-26T07:26:19;4.45;;;4.05;;
11123;SDS011;5616;42.692;23.312;2023-06-26T07:28:47;5.65;;;4.82;;
11123;SDS011;5616;42.692;23.312;2023-06-26T07:31:14;5.82;;;4.88;;
11123;SDS011;5616;42.692;23.312;2023-06-26T07:33:42;7.47;;;4.82;;
11123;SDS011;5616;42.692;23.312;2023-06-26T07:36:08;5.78;;;5.25;;
11123;SDS011;5616;42.692;23.312;2023-06-26T07:38:35;6.90;;;5.32;;
11123;SDS011;5616;42.692;23.312;2023-06-26T07:41:02;5.35;;;4.75;;
11123;SDS011;5616;42.692;23.312;2023-06-26T07:43:30;6.25;;;5.05;;
11123;SDS011;5616;42.692;23.312;2023-06-26T07:45:57;5.03;;;4.20;;
11123;SDS011;5616;42.692;23.312;2023-06-26T07:48:24;4.60;;;4.20;;
11123;SDS011;5616;42.692;23.312;2023-06-26T07:50:51;4.10;;;3.70;;
11123;SDS011;5616;42.692;23.312;2023-06-26T07:53:18;6.05;;;3.88;;
11123;SDS011;5616;42.692;23.312;2023-06-26T07:55:45;4.18;;;3.67;;
11123;SDS011;5616;42.692;23.312;2023-06-26T07:58:12;4.60;;;4.20;;
11123;SDS011;5616;42.692;23.312;2023-06-26T08:00:40;4.40;;;4.00;;
11123;SDS011;5616;42.692;23.312;2023-06-26T08:03:07;4.90;;;4.15;;
11123;SDS011;5616;42.692;23.312;2023-06-26T08:05:34;5.28;;;4.38;;
11123;SDS011;5616;42.692;23.312;2023-06-26T08:08:00;5.78;;;4.28;;
11123;SDS011;5616;42.692;23.312;2023-06-26T08:10:28;4.70;;;4.30;;
11123;SDS011;5616;42.692;23.312;2023-06-26T08:12:55;7.28;;;5.00;;
11123;SDS011;5616;42.692;23.312;2023-06-26T08:15:23;6.55;;;4.93;;
11123;SDS011;5616;42.692;23.312;2023-06-26T08:17:51;8.07;;;5.40;;
11123;SDS011;5616;42.692;23.312;2023-06-26T08:20:18;7.18;;;5.70;;
11123;SDS011;5616;42.692;23.312;2023-06-26T08:22:45;5.80;;;5.18;;
11123;SDS011;5616;42.692;23.312;2023-06-26T08:25:14;5.90;;;5.40;;
11123;SDS011;5616;42.692;23.312;2023-06-26T08:27:41;5.97;;;5.38;;
11123;SDS011;5616;42.692;23.312;2023-06-26T08:30:08;6.03;;;5.50;;
11123;SDS011;5616;42.692;23.312;2023-06-26T08:32:35;6.65;;;5.75;;
11123;SDS011;5616;42.692;23.312;2023-06-26T08:35:04;7.03;;;5.20;;
11123;SDS011;5616;42.692;23.312;2023-06-26T08:37:31;5.53;;;4.75;;
11123;SDS011;5616;42.692;23.312;2023-06-26T08:39:58;6.38;;;4.22;;
11123;SDS011;5616;42.692;23.312;2023-06-26T08:42:25;5.30;;;4.30;;
11123;SDS011;5616;42.692;23.312;2023-06-26T08:44:51;5.93;;;4.80;;
11123;SDS011;5616;42.692;23.312;2023-06-26T08:47:19;5.32;;;4.80;;
11123;SDS011;5616;42.692;23.312;2023-06-26T08:49:46;5.10;;;4.43;;
11123;SDS011;5616;42.692;23.312;2023-06-26T08:52:22;5.38;;;4.88;;
11123;SDS011;5616;42.692;23.312;2023-06-26T08:54:51;5.68;;;4.88;;
11123;SDS011;5616;42.692;23.312;2023-06-26T08:57:22;7.50;;;5.18;;
11123;SDS011;5616;42.692;23.312;2023-06-26T08:59:49;7.35;;;5.00;;
11123;SDS011;5616;42.692;23.312;2023-06-26T09:02:17;4.95;;;4.50;;
11123;SDS011;5616;42.692;23.312;2023-06-26T09:04:46;8.50;;;5.70;;
11123;SDS011;5616;42.692;23.312;2023-06-26T09:07:14;6.88;;;5.10;;
11123;SDS011;5616;42.692;23.312;2023-06-26T09:09:42;6.88;;;4.38;;
11123;SDS011;5616;42.692;23.312;2023-06-26T09:12:09;5.10;;;4.60;;
11123;SDS011;5616;42.692;23.312;2023-06-26T09:14:36;5.03;;;4.35;;
11123;SDS011;5616;42.692;23.312;2023-06-26T09:17:03;4.70;;;4.30;;
11123;SDS011;5616;42.692;23.312;2023-06-26T09:19:30;5.18;;;4.68;;
11123;SDS011;5616;42.692;23.312;2023-06-26T09:21:57;4.90;;;4.50;;
11123;SDS011;5616;42.692;23.312;2023-06-26T09:24:24;5.53;;;4.30;;
11123;SDS011;5616;42.692;23.312;2023-06-26T09:26:52;5.03;;;3.90;;
11123;SDS011;5616;42.692;23.312;2023-06-26T09:29:19;4.38;;;3.97;;
11123;SDS011;5616;42.692;23.312;2023-06-26T09:31:46;7.63;;;4.00;;
11123;SDS011;5616;42.692;23.312;2023-06-26T09:34:13;3.80;;;3.50;;
11123;SDS011;5616;42.692;23.312;2023-06-26T09:36:40;4.07;;;3.67;;
11123;SDS011;5616;42.692;23.312;2023-06-26T09:39:11;6.85;;;4.40;;
11123;SDS011;5616;42.692;23.312;2023-06-26T09:41:40;4.68;;;4.28;;
11123;SDS011;5616;42.692;23.312;2023-06-26T09:44:10;6.35;;;4.70;;
11123;SDS011;5616;42.692;23.312;2023-06-26T09:46:37;7.65;;;4.55;;
11123;SDS011;5616;42.692;23.312;2023-06-26T09:49:05;6.43;;;4.32;;
11123;SDS011;5616;42.692;23.312;2023-06-26T09:51:33;5.65;;;4.57;;
11123;SDS011;5616;42.692;23.312;2023-06-26T09:54:01;7.53;;;5.35;;
11123;SDS011;5616;42.692;23.312;2023-06-26T09:56:29;6.60;;;4.72;;
11123;SDS011;5616;42.692;23.312;2023-06-26T09:58:57;5.30;;;4.50;;
11123;SDS011;5616;42.692;23.312;2023-06-26T10:01:27;6.72;;;4.75;;
11123;SDS011;5616;42.692;23.312;2023-06-26T10:03:55;6.03;;;4.32;;
11123;SDS011;5616;42.692;23.312;2023-06-26T10:06:24;6.85;;;5.03;;
11123;SDS011;5616;42.692;23.312;2023-06-26T10:08:54;5.38;;;4.88;;
11123;SDS011;5616;42.692;23.312;2023-06-26T10:11:24;5.55;;;5.05;;
11123;SDS011;5616;42.692;23.312;2023-06-26T10:13:57;7.13;;;4.68;;
11123;SDS011;5616;42.692;23.312;2023-06-26T10:16:25;5.78;;;5.18;;
11123;SDS011;5616;42.692;23.312;2023-06-26T10:18:56;6.75;;;5.57;;
11123;SDS011;5616;42.692;23.312;2023-06-26T10:21:28;5.60;;;5.10;;
11123;SDS011;5616;42.692;23.312;2023-06-26T10:23:56;7.82;;;5.35;;
11123;SDS011;5616;42.692;23.312;2023-06-26T10:26:24;7.50;;;5.53;;
11123;SDS011;5616;42.692;23.312;2023-06-26T10:28:52;5.97;;;5.38;;
11123;SDS011;5616;42.692;23.312;2023-06-26T10:31:21;7.45;;;5.18;;
11123;SDS011;5616;42.692;23.312;2023-06-26T10:33:51;6.65;;;5.28;;
11123;SDS011;5616;42.692;23.312;2023-06-26T10:36:26;5.78;;;5.20;;
11123;SDS011;5616;42.692;23.312;2023-06-26T10:38:55;5.40;;;4.90;;
11123;SDS011;5616;42.692;23.312;2023-06-26T10:41:23;8.52;;;5.07;;
11123;SDS011;5616;42.692;23.312;2023-06-26T10:43:51;6.22;;;5.22;;
11123;SDS011;5616;42.692;23.312;2023-06-26T10:46:32;8.27;;;5.68;;
11123;SDS011;5616;42.692;23.312;2023-06-26T10:49:00;7.53;;;4.85;;
11123;SDS011;5616;42.692;23.312;2023-06-26T10:51:29;6.68;;;5.05;;
11123;SDS011;5616;42.692;23.312;2023-06-26T10:53:57;5.80;;;5.15;;
11123;SDS011;5616;42.692;23.312;2023-06-26T10:56:43;5.93;;;4.93;;
11123;SDS011;5616;42.692;23.312;2023-06-26T10:59:13;7.95;;;5.68;;
11123;SDS011;5616;42.692;23.312;2023-06-26T11:01:42;6.57;;;5.13;;
11123;SDS011;5616;42.692;23.312;2023-06-26T11:04:09;6.32;;;5.00;;
11123;SDS011;5616;42.692;23.312;2023-06-26T11:06:38;5.22;;;4.72;;
11123;SDS011;5616;42.692;23.312;2023-06-26T11:09:14;5.72;;;5.00;;
11123;SDS011;5616;42.692;23.312;2023-06-26T11:11:57;7.60;;;5.40;;
11123;SDS011;5616;42.692;23.312;2023-06-26T11:14:27;5.80;;;5.20;;
11123;SDS011;5616;42.692;23.312;2023-06-26T11:16:55;6.35;;;4.95;;
11123;SDS011;5616;42.692;23.312;2023-06-26T11:19:24;6.22;;;5.63;;
11123;SDS011;5616;42.692;23.312;2023-06-26T11:21:53;6.65;;;5.35;;
11123;SDS011;5616;42.692;23.312;2023-06-26T11:24:24;6.53;;;5.45;;
11123;SDS011;5616;42.692;23.312;2023-06-26T11:26:51;6.10;;;5.03;;
11123;SDS011;5616;42.692;23.312;2023-06-26T11:29:18;5.50;;;5.00;;
11123;SDS011;5616;42.692;23.312;2023-06-26T11:31:45;6.40;;;5.13;;
11123;SDS011;5616;42.692;23.312;2023-06-26T11:34:12;5.45;;;4.43;;
11123;SDS011;5616;42.692;23.312;2023-06-26T11:36:41;5.88;;;4.80;;
11123;SDS011;5616;42.692;23.312;2023-06-26T11:39:12;6.15;;;5.20;;
11123;SDS011;5616;42.692;23.312;2023-06-26T11:41:39;5.25;;;4.75;;
11123;SDS011;5616;42.692;23.312;2023-06-26T11:44:07;7.13;;;5.05;;
11123;SDS011;5616;42.692;23.312;2023-06-26T11:46:35;6.47;;;5.30;;
11123;SDS011;5616;42.692;23.312;2023-06-26T11:49:03;7.93;;;5.60;;
11123;SDS011;5616;42.692;23.312;2023-06-26T11:51:30;5.38;;;4.88;;
11123;SDS011;5616;42.692;23.312;2023-06-26T11:54:00;7.75;;;4.88;;
11123;SDS011;5616;42.692;23.312;2023-06-26T11:56:29;5.80;;;5.25;;
11123;SDS011;5616;42.692;23.312;2023-06-26T11:58:56;5.70;;;5.20;;
11123;SDS011;5616;42.692;23.312;2023-06-26T12:01:26;7.55;;;5.22;;
11123;SDS011;5616;42.692;23.312;2023-06-26T12:03:59;5.90;;;5.35;;
11123;SDS011;5616;42.692;23.312;2023-06-26T12:06:28;6.90;;;5.20;;
11123;SDS011;5616;42.692;23.312;2023-06-26T12:08:55;6.75;;;5.60;;
11123;SDS011;5616;42.692;23.312;2023-06-26T12:11:23;6.78;;;5.43;;
11123;SDS011;5616;42.692;23.312;2023-06-26T12:13:52;5.43;;;4.72;;
11123;SDS011;5616;42.692;23.312;2023-06-26T12:16:19;5.68;;;5.03;;
11123;SDS011;5616;42.692;23.312;2023-06-26T12:18:46;6.65;;;5.10;;
11123;SDS011;5616;42.692;23.312;2023-06-26T12:21:28;5.18;;;4.65;;
11123;SDS011;5616;42.692;23.312;2023-06-26T12:24:12;5.47;;;4.65;;
11123;SDS011;5616;42.692;23.312;2023-06-26T12:26:41;6.05;;;4.80;;
11123;SDS011;5616;42.692;23.312;2023-06-26T12:29:11;5.30;;;4.55;;
11123;SDS011;5616;42.692;23.312;2023-06-26T12:31:39;5.25;;;4.65;;
11123;SDS011;5616;42.692;23.312;2023-06-26T12:34:08;6.78;;;5.32;;
11123;SDS011;5616;42.692;23.312;2023-06-26T12:36:39;7.07;;;5.10;;
11123;SDS011;5616;42.692;23.312;2023-06-26T12:39:09;6.50;;;5.40;;
11123;SDS011;5616;42.692;23.312;2023-06-26T12:41:43;5.88;;;5.28;;
11123;SDS011;5616;42.692;23.312;2023-06-26T12:44:19;5.65;;;4.93;;
11123;SDS011;5616;42.692;23.312;2023-06-26T12:46:47;6.15;;;5.43;;
11123;SDS011;5616;42.692;23.312;2023-06-26T12:49:16;5.53;;;5.03;;
11123;SDS011;5616;42.692;23.312;2023-06-26T12:51:43;7.38;;;5.60;;
11123;SDS011;5616;42.692;23.312;2023-06-26T12:54:10;8.25;;;5.38;;
11123;SDS011;5616;42.692;23.312;2023-06-26T12:56:36;6.38;;;5.78;;
11123;SDS011;5616;42.692;23.312;2023-06-26T12:59:03;6.03;;;5.20;;
11123;SDS011;5616;42.692;23.312;2023-06-26T13:01:31;6.45;;;5.50;;
11123;SDS011;5616;42.692;23.312;2023-06-26T13:03:59;7.50;;;5.85;;
11123;SDS011;5616;42.692;23.312;2023-06-26T13:06:26;8.07;;;5.80;;
11123;SDS011;5616;42.692;23.312;2023-06-26T13:08:53;6.40;;;5.30;;
11123;SDS011;5616;42.692;23.312;2023-06-26T13:11:20;5.45;;;4.95;;
11123;SDS011;5616;42.692;23.312;2023-06-26T13:13:48;6.30;;;5.68;;
11123;SDS011;5616;42.692;23.312;2023-06-26T13:16:14;8.23;;;5.05;;
11123;SDS011;5616;42.692;23.312;2023-06-26T13:18:45;5.72;;;5.22;;
11123;SDS011;5616;42.692;23.312;2023-06-26T13:21:12;5.90;;;5.30;;
11123;SDS011;5616;42.692;23.312;2023-06-26T13:23:39;6.93;;;5.28;;
11123;SDS011;5616;42.692;23.312;2023-06-26T13:26:06;6.25;;;5.10;;
11123;SDS011;5616;42.692;23.312;2023-06-26T13:28:33;10.35;;;5.15;;
11123;SDS011;5616;42.692;23.312;2023-06-26T13:31:00;7.93;;;5.57;;
11123;SDS011;5616;42.692;23.312;2023-06-26T13:33:27;8.48;;;5.47;;
11123;SDS011;5616;42.692;23.312;2023-06-26T13:35:55;6.10;;;5.03;;
11123;SDS011;5616;42.692;23.312;2023-06-26T13:38:22;7.38;;;5.28;;
11123;SDS011;5616;42.692;23.312;2023-06-26T13:40:50;5.80;;;5.20;;
11123;SDS011;5616;42.692;23.312;2023-06-26T13:43:18;6.20;;;5.00;;
11123;SDS011;5616;42.692;23.312;2023-06-26T13:45:44;5.60;;;5.10;;
11123;SDS011;5616;42.692;23.312;2023-06-26T13:48:11;6.75;;;5.25;;
11123;SDS011;5616;42.692;23.312;2023-06-26T13:50:38;5.88;;;5.20;;
11123;SDS011;5616;42.692;23.312;2023-06-26T13:53:06;5.75;;;5.18;;
11123;SDS011;5616;42.692;23.312;2023-06-26T13:55:33;7.80;;;5.30;;
11123;SDS011;5616;42.692;23.312;2023-06-26T13:58:00;5.93;;;5.32;;
11123;SDS011;5616;42.692;23.312;2023-06-26T14:00:29;6.10;;;5.30;;
11123;SDS011;5616;42.692;23.312;2023-06-26T14:02:56;7.53;;;5.43;;
11123;SDS011;5616;42.692;23.312;2023-06-26T14:05:23;6.93;;;4.97;;
11123;SDS011;5616;42.692;23.312;2023-06-26T14:07:49;6.05;;;5.28;;
11123;SDS011;5616;42.692;23.312;2023-06-26T14:10:18;6.13;;;5.60;;
11123;SDS011;5616;42.692;23.312;2023-06-26T14:12:44;6.57;;;5.53;;
11123;SDS011;5616;42.692;23.312;2023-06-26T14:15:11;6.05;;;5.43;;
11123;SDS011;5616;42.692;23.312;2023-06-26T14:17:38;7.75;;;5.57;;
11123;SDS011;5616;42.692;23.312;2023-06-26T14:20:05;7.38;;;5.50;;
11123;SDS011;5616;42.692;23.312;2023-06-26T14:22:35;7.35;;;5.22;;
11123;SDS011;5616;42.692;23.312;2023-06-26T14:25:02;7.22;;;5.60;;
11123;SDS011;5616;42.692;23.312;2023-06-26T14:27:30;8.52;;;5.85;;
11123;SDS011;5616;42.692;23.312;2023-06-26T14:29:57;6.75;;;5.57;;
11123;SDS011;5616;42.692;23.312;2023-06-26T14:32:24;5.57;;;4.90;;
11123;SDS011;5616;42.692;23.312;2023-06-26T14:34:50;6.80;;;5.47;;
11123;SDS011;5616;42.692;23.312;2023-06-26T14:37:17;5.38;;;4.88;;
11123;SDS011;5616;42.692;23.312;2023-06-26T14:39:46;5.57;;;5.10;;